Delaware Park, New Jersey
Current Conditions -  °F | °C
As of 10:53 AM on Monday 26 Jan 2015 (Local Time) from KABE Reporting Station
Light Snow Light Snow  
Wind Chill:   Ceiling: 3000
Heat Index: 19°   Visibility: 2.5mi
Dew Point: 12°   Wind: 16mph
Humidity: 74%   Direction: 60°ENE
Pressure: 29.92"   Gusts: NA
Location:  40.7083°N, 75.1472°W
Report Text: KABE 261553Z 06014KT 2 1/2SM -SN OVC030 M07/M11 A2992 RMK AO2 SFC VIS 3 P0000
Loading
Personal Weather Stations






























Interactive Weather Map New forecast layout! Learn more

10-Day Weather Forecast

Advertisements
Track Severe Weather on mobile